Time;durP1;ratioP1;P1;durP2;ratioP2;P2;SDS_P1;SDS_P2;PMS_P1;PMS_P2;Temp;Humidity;BMP_temperature;BMP_pressure;BME280_temperature;BME280_humidity;BME280_pressure;Samples;Min_cycle;Max_cycle;Signal;HPM_P1;HPM_P2
2023/05/29 00:00:05;;;;;;;7.75;2.40;;;;;;;14.15;60.83;102142.63;4963322;28;20038;-45
2023/05/29 00:02:32;;;;;;;14.07;2.92;;;;;;;14.12;60.70;102143.31;4967408;28;20074;-45
2023/05/29 00:05:02;;;;;;;8.20;2.35;;;;;;;14.13;60.70;102150.50;4950787;28;20034;-45
2023/05/29 00:07:30;;;;;;;9.77;2.72;;;;;;;14.09;60.79;102141.19;4964809;28;20512;-46
2023/05/29 00:09:57;;;;;;;12.55;3.00;;;;;;;14.05;60.74;102149.41;4972269;28;20053;-45
2023/05/29 00:12:25;;;;;;;9.50;2.50;;;;;;;14.03;61.00;102137.78;4953096;28;20385;-45
2023/05/29 00:14:52;;;;;;;5.78;2.10;;;;;;;13.99;61.00;102148.78;4973560;28;20456;-46
2023/05/29 00:17:20;;;;;;;15.27;3.15;;;;;;;13.97;61.29;102147.47;4972248;28;20042;-47
2023/05/29 00:19:47;;;;;;;16.15;2.75;;;;;;;13.93;61.29;102144.53;4974097;28;20051;-45
2023/05/29 00:22:14;;;;;;;10.73;3.17;;;;;;;13.91;61.14;102155.19;4973490;28;20101;-45
2023/05/29 00:24:41;;;;;;;11.73;2.70;;;;;;;13.89;61.17;102149.16;4973579;28;20061;-46
2023/05/29 00:27:09;;;;;;;10.45;3.58;;;;;;;13.89;61.34;102143.59;4971690;28;20409;-46
2023/05/29 00:29:37;;;;;;;17.80;4.00;;;;;;;13.86;61.43;102154.56;4973362;28;20039;-46
2023/05/29 00:32:05;;;;;;;12.43;2.65;;;;;;;13.81;61.66;102152.78;4972986;28;20051;-45
2023/05/29 00:34:32;;;;;;;17.15;3.15;;;;;;;13.75;61.69;102153.28;4973184;28;20051;-45
2023/05/29 00:36:59;;;;;;;15.02;3.28;;;;;;;13.73;61.77;102150.84;4973449;28;20054;-47
2023/05/29 00:39:26;;;;;;;11.82;2.63;;;;;;;13.70;61.79;102156.25;4973221;28;20101;-45
2023/05/29 00:41:53;;;;;;;13.20;2.55;;;;;;;13.67;62.05;102157.72;4972946;28;20057;-47
2023/05/29 00:44:21;;;;;;;9.88;3.30;;;;;;;13.64;62.03;102152.81;4972073;28;20053;-49
2023/05/29 00:46:50;;;;;;;16.35;2.67;;;;;;;13.60;62.13;102156.59;4972065;28;20504;-49
2023/05/29 00:49:17;;;;;;;10.45;2.40;;;;;;;13.60;62.13;102160.22;4972992;28;20114;-45
2023/05/29 00:51:44;;;;;;;15.38;3.13;;;;;;;13.55;62.26;102154.81;4972984;28;20428;-50
2023/05/29 00:54:14;;;;;;;8.90;3.20;;;;;;;13.48;62.50;102154.50;4973408;28;20051;-45
2023/05/29 00:56:44;;;;;;;17.92;3.55;;;;;;;13.48;62.54;102153.66;4972952;28;20047;-45
2023/05/29 00:59:11;;;;;;;19.60;3.45;;;;;;;13.46;62.55;102156.78;4973072;28;20066;-45
2023/05/29 01:01:39;;;;;;;9.73;3.47;;;;;;;13.43;62.66;102163.84;4971555;28;20094;-48
2023/05/29 01:04:06;;;;;;;17.20;4.05;;;;;;;13.41;62.67;102162.53;4955954;28;20069;-49
2023/05/29 01:06:33;;;;;;;14.25;2.63;;;;;;;13.40;63.00;102167.28;4972685;28;20039;-46
2023/05/29 01:09:00;;;;;;;7.88;2.70;;;;;;;13.38;63.07;102168.75;4972947;28;20129;-46
2023/05/29 01:11:51;;;;;;;9.73;2.70;;;;;;;13.35;63.29;102173.00;4972518;28;20098;-46
2023/05/29 01:14:33;;;;;;;11.45;2.53;;;;;;;13.36;63.31;102171.06;4972414;28;20392;-45
2023/05/29 01:17:08;;;;;;;;;;;;;;;13.32;63.23;102173.66;4953753;28;20046;-46
2023/05/29 01:20:13;;;;;;;8.30;1.85;;;;;;;13.31;63.19;102165.66;4971233;28;19929;-46
2023/05/29 01:22:54;;;;;;;9.07;2.38;;;;;;;13.28;63.17;102166.31;4968859;28;20042;-45
2023/05/29 01:25:51;;;;;;;10.95;3.17;;;;;;;13.24;63.33;102159.75;4971813;28;20055;-45
2023/05/29 01:28:23;;;;;;;15.30;4.38;;;;;;;13.22;63.46;102160.09;4961822;28;20054;-45
2023/05/29 01:30:51;;;;;;;9.38;2.25;;;;;;;13.21;63.72;102155.69;4972054;28;20506;-46
2023/05/29 01:33:19;;;;;;;12.27;3.00;;;;;;;13.18;63.69;102161.09;4971648;28;20050;-46
2023/05/29 01:35:46;;;;;;;14.73;2.80;;;;;;;13.16;63.96;102160.59;4969214;28;20047;-46
2023/05/29 01:38:12;;;;;;;9.18;2.65;;;;;;;13.16;63.89;102152.25;4972267;28;20071;-48
2023/05/29 01:40:39;;;;;;;9.88;2.55;;;;;;;13.12;64.02;102154.06;4971702;28;20047;-45
2023/05/29 01:43:07;;;;;;;18.33;2.33;;;;;;;13.08;64.39;102158.66;4972231;28;20079;-51
2023/05/29 01:45:36;;;;;;;13.85;2.33;;;;;;;13.02;64.29;102160.75;4954694;28;20230;-54
2023/05/29 01:48:03;;;;;;;14.15;3.97;;;;;;;12.96;64.63;102159.28;4971103;28;20101;-46
2023/05/29 01:50:31;;;;;;;11.07;2.67;;;;;;;12.97;64.71;102162.88;4970820;28;20290;-53
2023/05/29 01:52:58;;;;;;;12.45;3.15;;;;;;;12.93;64.77;102156.31;4971587;28;20122;-45
2023/05/29 01:55:25;;;;;;;16.75;5.18;;;;;;;12.91;64.91;102161.41;4972013;28;20057;-45
2023/05/29 01:57:52;;;;;;;12.40;2.88;;;;;;;12.90;65.04;102149.44;4971393;28;20049;-46
2023/05/29 02:00:19;;;;;;;11.88;2.50;;;;;;;12.89;65.16;102164.50;4971846;28;20042;-45
2023/05/29 02:02:46;;;;;;;13.43;2.33;;;;;;;12.87;65.29;102163.22;4971919;28;20039;-48
2023/05/29 02:05:13;;;;;;;15.40;2.53;;;;;;;12.81;65.63;102152.22;4954134;28;20042;-50
2023/05/29 02:07:40;;;;;;;6.10;2.35;;;;;;;12.81;65.70;102152.22;4970932;28;20114;-48
2023/05/29 02:10:07;;;;;;;8.85;2.65;;;;;;;12.83;65.84;102147.19;4971325;28;20090;-45
2023/05/29 02:12:34;;;;;;;12.00;2.53;;;;;;;12.83;65.94;102152.75;4961119;28;20072;-46
2023/05/29 02:15:01;;;;;;;15.40;2.90;;;;;;;12.80;66.08;102150.59;4954093;28;20050;-52
2023/05/29 02:17:28;;;;;;;9.70;2.78;;;;;;;12.79;66.24;102154.50;4968751;28;20043;-46
2023/05/29 02:19:55;;;;;;;9.80;2.70;;;;;;;12.77;66.38;102145.69;4958442;28;20058;-46
2023/05/29 02:22:22;;;;;;;12.07;2.70;;;;;;;12.72;66.59;102154.19;4971231;28;20467;-46
2023/05/29 02:24:49;;;;;;;12.95;3.17;;;;;;;12.67;66.97;102151.56;4970574;28;20113;-46
2023/05/29 02:27:16;;;;;;;16.25;3.05;;;;;;;12.67;67.08;102151.56;4971292;28;20484;-50
2023/05/29 02:29:44;;;;;;;12.18;2.47;;;;;;;12.69;67.16;102149.28;4967639;28;20105;-46
2023/05/29 02:32:12;;;;;;;14.65;3.78;;;;;;;12.67;67.41;102146.03;4950726;28;20450;-47
2023/05/29 02:34:44;;;;;;;14.25;3.63;;;;;;;12.68;67.33;102147.63;4967397;28;20101;-46
2023/05/29 02:37:11;;;;;;;15.25;3.55;;;;;;;12.68;67.48;102147.63;4965831;28;20200;-51
2023/05/29 02:39:38;;;;;;;17.60;4.00;;;;;;;12.68;67.81;102142.06;4967905;28;20043;-48
2023/05/29 02:42:05;;;;;;;11.02;3.22;;;;;;;12.66;67.98;102143.53;4967487;28;20074;-45
2023/05/29 02:44:32;;;;;;;16.52;3.75;;;;;;;12.65;68.33;102139.16;4951665;28;20051;-46
2023/05/29 02:46:59;;;;;;;16.88;2.90;;;;;;;12.64;68.54;102143.06;4967283;28;20101;-46
2023/05/29 02:49:26;;;;;;;13.32;2.58;;;;;;;12.65;68.70;102142.75;4968310;28;20043;-45
2023/05/29 02:51:56;;;;;;;14.00;2.83;;;;;;;12.65;68.93;102142.75;4966585;28;20109;-53
2023/05/29 02:54:25;;;;;;;15.65;3.20;;;;;;;12.66;68.81;102152.72;4966682;28;20053;-46
2023/05/29 02:56:52;;;;;;;16.52;3.33;;;;;;;12.66;69.12;102155.50;4969665;28;20043;-51
2023/05/29 02:59:28;;;;;;;11.43;3.10;;;;;;;12.70;69.16;102156.50;4966270;28;22079;-45
2023/05/29 03:01:55;;;;;;;13.93;3.80;;;;;;;12.73;69.13;102158.59;4995207;23;20063;-45
2023/05/29 03:04:23;;;;;;;16.38;4.03;;;;;;;12.70;69.36;102159.28;4968884;28;20117;-45
2023/05/29 03:06:58;;;;;;;11.45;3.03;;;;;;;12.67;69.56;102162.69;4965280;28;20050;-46
2023/05/29 03:09:29;;;;;;;18.50;3.78;;;;;;;12.70;69.55;102164.00;4968733;28;20038;-45
2023/05/29 03:11:56;;;;;;;19.30;4.40;;;;;;;12.71;69.77;102171.16;4967164;28;20046;-47
2023/05/29 03:14:23;;;;;;;13.90;3.13;;;;;;;12.67;69.84;102168.25;4964462;28;20462;-45
2023/05/29 03:16:50;;;;;;;17.92;3.53;;;;;;;12.62;70.16;102160.06;4966090;28;20055;-45
2023/05/29 03:19:17;;;;;;;11.27;3.58;;;;;;;12.59;70.10;102159.91;4969049;28;20134;-47
2023/05/29 03:21:45;;;;;;;11.70;3.13;;;;;;;12.54;70.84;102169.22;4950806;28;20054;-49
2023/05/29 03:24:15;;;;;;;10.88;3.58;;;;;;;12.47;70.89;102163.28;4967391;28;20038;-45
2023/05/29 03:26:42;;;;;;;14.32;3.08;;;;;;;12.45;70.91;102160.03;4969668;28;20050;-45
2023/05/29 03:29:09;;;;;;;17.42;4.07;;;;;;;12.46;71.20;102166.41;4968444;28;20477;-45
2023/05/29 03:31:36;;;;;;;14.27;3.00;;;;;;;12.46;71.34;102164.44;4968829;28;20043;-45
2023/05/29 03:34:04;;;;;;;9.65;2.65;;;;;;;12.45;71.46;102162.81;4966987;28;20086;-45
2023/05/29 03:36:32;;;;;;;14.48;4.25;;;;;;;12.45;71.48;102168.34;4967111;28;20047;-45
2023/05/29 03:39:00;;;;;;;14.27;3.10;;;;;;;12.46;71.89;102161.66;4966421;28;20109;-46
2023/05/29 03:41:27;;;;;;;16.10;3.35;;;;;;;12.46;71.80;102170.00;4970055;28;20053;-46
2023/05/29 03:43:54;;;;;;;17.17;4.18;;;;;;;12.46;71.77;102161.66;4967856;28;20043;-46
2023/05/29 03:46:21;;;;;;;14.80;3.55;;;;;;;12.45;71.84;102157.25;4968654;28;20054;-45
2023/05/29 03:48:48;;;;;;;12.80;2.83;;;;;;;12.46;71.92;102166.41;4969524;28;20038;-46
2023/05/29 03:51:15;;;;;;;14.52;3.28;;;;;;;12.46;71.83;102160.84;4942979;29;20106;-47
2023/05/29 03:53:42;;;;;;;13.50;3.28;;;;;;;12.46;72.18;102163.63;4968786;28;20433;-48
2023/05/29 03:56:09;;;;;;;16.40;3.15;;;;;;;12.44;72.17;102163.97;4971806;28;20097;-45
2023/05/29 03:58:38;;;;;;;14.18;3.33;;;;;;;12.42;72.59;102163.44;4972973;28;20042;-47
2023/05/29 04:01:05;;;;;;;20.35;4.18;;;;;;;12.41;72.56;102161.81;4958005;28;20059;-45
2023/05/29 04:03:32;;;;;;;14.27;4.40;;;;;;;12.44;72.54;102174.25;4978464;28;20050;-45
2023/05/29 04:06:00;;;;;;;10.18;2.70;;;;;;;12.42;72.77;102171.78;4970543;28;20047;-45
2023/05/29 04:08:27;;;;;;;18.83;3.90;;;;;;;12.41;73.01;102175.72;4970105;28;20042;-45
2023/05/29 04:10:54;;;;;;;14.55;3.80;;;;;;;12.40;73.12;102173.25;4973858;28;20057;-50
2023/05/29 04:13:21;;;;;;;14.32;3.28;;;;;;;12.39;73.32;102172.41;4969605;28;20094;-45
2023/05/29 04:15:48;;;;;;;15.68;4.05;;;;;;;12.39;73.47;102166.88;4969256;28;20992;-45
2023/05/29 04:18:15;;;;;;;13.27;3.75;;;;;;;12.39;73.54;102166.88;4969403;28;20046;-46
2023/05/29 04:20:45;;;;;;;14.10;4.50;;;;;;;12.37;73.64;102174.72;4969045;28;20381;-45
2023/05/29 04:23:13;;;;;;;18.08;3.20;;;;;;;12.36;73.85;102178.66;4961507;28;20045;-45
2023/05/29 04:25:40;;;;;;;22.95;3.72;;;;;;;12.36;73.76;102184.19;4966669;28;20066;-45
2023/05/29 04:28:10;;;;;;;18.38;4.00;;;;;;;12.38;74.01;102187.47;4968486;28;20448;-45
2023/05/29 04:30:39;;;;;;;21.90;5.18;;;;;;;12.39;74.11;102182.72;4964815;28;20054;-48
2023/05/29 04:33:09;;;;;;;14.50;3.38;;;;;;;12.40;74.22;102179.63;4959499;28;20062;-45
2023/05/29 04:35:36;;;;;;;10.50;3.35;;;;;;;12.44;74.33;102186.19;4971525;28;20047;-46
2023/05/29 04:38:04;;;;;;;13.32;3.25;;;;;;;12.45;74.35;102182.25;4970568;28;20485;-46
2023/05/29 04:40:36;;;;;;;14.93;3.10;;;;;;;12.45;74.25;102179.47;4969251;28;20519;-46
2023/05/29 04:43:05;;;;;;;27.35;4.57;;;;;;;12.48;74.36;102186.34;4970151;28;20037;-47
2023/05/29 04:45:32;;;;;;;22.33;3.92;;;;;;;12.48;74.44;102181.59;4969761;28;20118;-46
2023/05/29 04:48:00;;;;;;;15.48;4.57;;;;;;;12.48;74.69;102184.38;4968021;28;20050;-46
2023/05/29 04:50:30;;;;;;;15.27;4.13;;;;;;;12.46;74.82;102177.50;4971308;28;20058;-45
2023/05/29 04:52:57;;;;;;;15.98;4.85;;;;;;;12.47;74.95;102187.50;4965190;28;20050;-45
2023/05/29 04:55:24;;;;;;;15.10;4.35;;;;;;;12.47;74.99;102184.72;4972282;28;20054;-45
2023/05/29 04:57:51;;;;;;;16.13;3.80;;;;;;;12.49;75.39;102186.03;4968324;28;20051;-45
2023/05/29 05:00:19;;;;;;;21.48;5.07;;;;;;;12.53;75.48;102189.78;4965863;28;20034;-45
2023/05/29 05:02:46;;;;;;;16.33;4.57;;;;;;;12.58;75.61;102195.19;4969144;28;20057;-45
2023/05/29 05:05:13;;;;;;;15.52;4.28;;;;;;;12.61;75.62;102199.28;4970603;28;20493;-47
2023/05/29 05:07:41;;;;;;;15.73;5.25;;;;;;;12.65;75.75;102198.31;4966984;28;20525;-48
2023/05/29 05:10:09;;;;;;;27.98;5.80;;;;;;;12.68;75.74;102197.66;4957359;28;20424;-48
2023/05/29 05:12:36;;;;;;;16.52;4.78;;;;;;;12.71;75.88;102199.78;4952348;28;20039;-45
2023/05/29 05:15:04;;;;;;;10.10;3.40;;;;;;;12.73;75.95;102196.69;4967338;28;20456;-51
2023/05/29 05:17:31;;;;;;;14.98;5.35;;;;;;;12.77;76.17;102200.44;4968267;28;20489;-45
2023/05/29 05:19:58;;;;;;;21.23;4.85;;;;;;;12.80;76.23;102216.47;4969347;28;20069;-45
2023/05/29 05:22:24;;;;;;;15.90;5.53;;;;;;;12.82;76.47;102200.28;4966567;28;20047;-47
2023/05/29 05:24:54;;;;;;;20.08;5.78;;;;;;;12.84;76.48;102218.28;4977264;28;20053;-46
2023/05/29 05:27:21;;;;;;;17.33;4.30;;;;;;;12.88;76.74;102212.06;4972356;28;20378;-45
2023/05/29 05:29:48;;;;;;;22.73;6.35;;;;;;;12.92;76.77;102213.06;4982919;28;20042;-45
2023/05/29 05:32:15;;;;;;;12.70;6.20;;;;;;;12.93;76.91;102214.69;4968168;28;20094;-45
2023/05/29 05:34:41;;;;;;;17.65;5.90;;;;;;;12.94;77.22;102211.59;4970064;28;20137;-45
2023/05/29 05:37:09;;;;;;;18.80;6.13;;;;;;;12.94;77.16;102214.38;4968487;28;20117;-45
2023/05/29 05:39:36;;;;;;;18.70;5.22;;;;;;;12.98;77.25;102218.13;4952330;28;20047;-46
2023/05/29 05:42:03;;;;;;;19.25;5.70;;;;;;;13.02;77.34;102223.88;4971525;28;20038;-47
2023/05/29 05:44:30;;;;;;;13.38;4.55;;;;;;;13.06;77.56;102225.66;4967674;28;20504;-45
2023/05/29 05:46:57;;;;;;;18.08;6.90;;;;;;;13.11;77.62;102221.94;4969368;28;20046;-45
2023/05/29 05:49:24;;;;;;;29.27;7.75;;;;;;;13.18;77.77;102222.28;4969933;28;20093;-45
2023/05/29 05:51:51;;;;;;;24.17;6.72;;;;;;;13.24;77.71;102227.34;4970152;28;20061;-48
2023/05/29 05:54:18;;;;;;;20.85;5.00;;;;;;;13.31;77.81;102232.44;4965898;28;20053;-45
2023/05/29 05:56:45;;;;;;;19.23;4.55;;;;;;;13.34;77.95;102226.22;4968679;28;20426;-46
2023/05/29 05:59:11;;;;;;;20.65;5.47;;;;;;;13.40;78.04;102224.88;4968857;28;20778;-45
2023/05/29 06:01:39;;;;;;;23.20;6.50;;;;;;;13.45;78.23;102232.25;4966423;28;20070;-46
2023/05/29 06:04:06;;;;;;;18.77;5.43;;;;;;;13.46;78.23;102226.34;4970419;28;20130;-46
2023/05/29 06:06:33;;;;;;;26.30;6.63;;;;;;;13.50;78.43;102232.91;4965713;28;20065;-45
2023/05/29 06:09:00;;;;;;;17.55;5.30;;;;;;;13.54;78.38;102219.97;4967466;28;20094;-47
2023/05/29 06:11:27;;;;;;;25.33;5.80;;;;;;;13.59;78.48;102230.91;4967785;28;20133;-45
2023/05/29 06:13:54;;;;;;;15.10;5.35;;;;;;;13.63;78.45;102229.13;4967811;28;20150;-45
2023/05/29 06:16:21;;;;;;;14.70;4.80;;;;;;;13.67;78.58;102234.84;4960979;28;20082;-45
2023/05/29 06:18:49;;;;;;;15.27;5.32;;;;;;;13.71;78.57;102236.66;4967339;28;20138;-45
2023/05/29 06:21:16;;;;;;;15.95;5.38;;;;;;;13.78;78.63;102236.94;4966613;28;20035;-45
2023/05/29 06:23:43;;;;;;;12.90;4.97;;;;;;;13.83;78.37;102242.34;4966999;28;20066;-45
2023/05/29 06:26:11;;;;;;;26.17;10.05;;;;;;;13.90;78.40;102233.47;4967904;28;20078;-46
2023/05/29 06:28:38;;;;;;;18.55;5.32;;;;;;;13.96;78.41;102248.84;4968073;28;20038;-51
2023/05/29 06:31:05;;;;;;;25.90;6.40;;;;;;;14.01;78.32;102241.16;4964744;28;20042;-45
2023/05/29 06:33:32;;;;;;;20.13;5.25;;;;;;;14.10;78.21;102245.88;4976143;28;20050;-46
2023/05/29 06:35:59;;;;;;;13.25;4.93;;;;;;;14.18;78.13;102253.38;4973351;28;20038;-45
2023/05/29 06:38:29;;;;;;;20.30;4.97;;;;;;;14.25;78.25;102256.47;4977942;28;20082;-46
2023/05/29 06:40:57;;;;;;;16.25;4.70;;;;;;;14.30;78.04;102254.31;4969965;28;20062;-45
2023/05/29 06:43:24;;;;;;;15.65;4.15;;;;;;;14.36;78.07;102258.59;4971005;28;20085;-46
2023/05/29 06:45:50;;;;;;;19.25;5.10;;;;;;;14.42;77.98;102262.00;4970715;28;20046;-45
2023/05/29 06:48:17;;;;;;;11.05;3.95;;;;;;;14.51;77.90;102271.13;4974633;28;20066;-49
2023/05/29 06:50:44;;;;;;;17.55;5.30;;;;;;;14.57;77.72;102264.22;4958224;28;20118;-50
2023/05/29 06:53:11;;;;;;;19.10;5.10;;;;;;;14.63;77.61;102272.06;4969187;28;20081;-47
2023/05/29 06:55:42;;;;;;;10.40;4.28;;;;;;;14.69;77.65;102272.72;4970962;28;20662;-46
2023/05/29 06:58:11;;;;;;;11.38;5.20;;;;;;;14.78;77.30;102275.44;4969622;28;20139;-46
2023/05/29 07:00:37;;;;;;;15.23;4.75;;;;;;;14.84;77.27;102274.91;4970124;28;20112;-45
2023/05/29 07:03:04;;;;;;;26.52;7.75;;;;;;;14.89;77.03;102282.25;4965285;28;20049;-49
2023/05/29 07:05:33;;;;;;;14.38;4.55;;;;;;;14.94;77.00;102282.88;4967856;28;20129;-45
2023/05/29 07:08:01;;;;;;;15.70;4.40;;;;;;;14.97;76.89;102282.22;4969988;28;20047;-46
2023/05/29 07:10:27;;;;;;;14.73;4.10;;;;;;;15.03;76.88;102282.84;4962338;28;20035;-51
2023/05/29 07:12:54;;;;;;;21.15;4.35;;;;;;;15.13;77.21;102300.00;4962471;28;20074;-46
2023/05/29 07:15:21;;;;;;;18.10;4.55;;;;;;;15.24;77.21;102295.66;4961906;28;20043;-46
2023/05/29 07:17:48;;;;;;;10.88;4.13;;;;;;;15.27;76.96;102294.94;4965362;28;20055;-45
2023/05/29 07:20:16;;;;;;;18.75;4.85;;;;;;;15.33;77.35;102295.56;4968842;28;20078;-45
2023/05/29 07:22:43;;;;;;;13.98;4.45;;;;;;;15.44;77.71;102309.94;4966608;28;20074;-45
2023/05/29 07:25:10;;;;;;;11.15;3.80;;;;;;;15.54;77.94;102304.00;4965891;28;20500;-46
2023/05/29 07:27:37;;;;;;;14.55;4.50;;;;;;;15.60;77.98;102302.63;4968702;28;20109;-46
2023/05/29 07:30:05;;;;;;;18.40;4.03;;;;;;;15.70;78.36;102307.81;4968670;28;20059;-43
2023/05/29 07:32:32;;;;;;;18.42;6.05;;;;;;;15.79;78.72;102305.72;4969334;28;20103;-45
2023/05/29 07:34:59;;;;;;;11.80;3.58;;;;;;;15.90;78.76;102300.53;4970444;28;20055;-43
2023/05/29 07:37:26;;;;;;;20.05;4.60;;;;;;;16.05;79.24;102299.88;4970337;28;20042;-44
2023/05/29 07:39:53;;;;;;;11.65;4.38;;;;;;;16.24;79.52;102301.00;4970677;28;20057;-49
2023/05/29 07:42:20;;;;;;;13.85;4.35;;;;;;;16.48;79.68;102303.03;4970235;28;20043;-45
2023/05/29 07:44:47;;;;;;;18.00;4.90;;;;;;;16.75;79.80;102309.94;4970162;28;20600;-44
2023/05/29 07:47:15;;;;;;;12.05;4.13;;;;;;;17.02;79.65;102315.63;4970149;28;20078;-44
2023/05/29 07:49:42;;;;;;;13.35;4.75;;;;;;;17.37;79.43;102315.13;4944469;28;20149;-44
2023/05/29 07:52:09;;;;;;;12.23;4.22;;;;;;;17.83;78.68;102308.94;4965138;28;20043;-45
2023/05/29 07:54:36;;;;;;;13.98;4.82;;;;;;;18.40;77.53;102322.53;4962728;28;20046;-49
2023/05/29 07:57:03;;;;;;;11.63;3.28;;;;;;;18.97;75.39;102324.00;4970097;28;20436;-46
2023/05/29 07:59:30;;;;;;;16.08;4.63;;;;;;;19.51;72.73;102321.28;4970450;28;20059;-48
2023/05/29 08:02:02;;;;;;;10.15;4.07;;;;;;;20.08;70.48;102321.28;4970165;28;20133;-51
2023/05/29 08:04:31;;;;;;;11.88;5.18;;;;;;;20.78;68.47;102326.63;4969296;28;20050;-45
2023/05/29 08:07:00;;;;;;;13.77;3.90;;;;;;;21.22;65.97;102325.75;4956980;28;20053;-46
2023/05/29 08:09:27;;;;;;;14.25;3.88;;;;;;;21.58;63.65;102331.88;4970016;28;20047;-45
2023/05/29 08:11:53;;;;;;;12.65;4.57;;;;;;;22.03;61.86;102331.69;4952554;28;20047;-46
2023/05/29 08:14:21;;;;;;;9.80;3.78;;;;;;;22.41;60.06;102336.94;4969751;28;20061;-47
2023/05/29 08:16:48;;;;;;;11.88;4.63;;;;;;;22.71;58.13;102327.59;4967591;28;20050;-46
2023/05/29 08:19:15;;;;;;;12.65;3.72;;;;;;;22.94;56.42;102343.13;4969475;28;20061;-46
2023/05/29 08:21:42;;;;;;;11.48;4.07;;;;;;;23.26;55.13;102348.19;4968560;28;20493;-47
2023/05/29 08:24:09;;;;;;;7.85;3.97;;;;;;;23.47;53.92;102345.53;4970152;28;20050;-45
2023/05/29 08:26:36;;;;;;;11.02;3.22;;;;;;;23.59;53.10;102346.00;4969847;28;20054;-49
2023/05/29 08:29:03;;;;;;;8.98;3.17;;;;;;;23.73;52.23;102350.09;4969853;28;20098;-45
2023/05/29 08:31:30;;;;;;;6.72;3.05;;;;;;;23.85;51.12;102347.75;4970172;28;20061;-46
2023/05/29 08:33:58;;;;;;;8.50;3.05;;;;;;;23.88;50.16;102351.81;4970507;28;20049;-49
2023/05/29 08:36:25;;;;;;;10.13;3.50;;;;;;;23.90;49.14;102349.38;4973572;28;20451;-47
2023/05/29 08:38:52;;;;;;;11.10;4.13;;;;;;;24.03;48.92;102347.81;4972121;28;20051;-45
2023/05/29 08:41:27;;;;;;;8.82;2.60;;;;;;;24.21;48.52;102354.38;4973239;28;20090;-48
2023/05/29 08:43:54;;;;;;;6.88;3.00;;;;;;;24.18;46.69;102350.31;4973077;28;20562;-45
2023/05/29 08:46:21;;;;;;;10.80;2.92;;;;;;;24.22;45.48;102353.16;4973034;28;20490;-46
2023/05/29 08:48:52;;;;;;;13.07;3.35;;;;;;;24.33;45.08;102351.16;4971713;28;20047;-46
2023/05/29 08:51:29;;;;;;;5.68;2.40;;;;;;;24.35;44.13;102348.75;4972989;28;20505;-45
2023/05/29 08:53:56;;;;;;;5.03;1.95;;;;;;;24.48;43.13;102357.66;4955115;28;20051;-45
2023/05/29 08:56:23;;;;;;;12.15;2.60;;;;;;;24.68;41.64;102364.56;4971879;28;20489;-46
2023/05/29 08:59:02;;;;;;;9.05;2.88;;;;;;;24.67;40.69;102349.63;4961993;28;20086;-46
2023/05/29 09:01:35;;;;;;;7.20;2.20;;;;;;;24.57;40.07;102356.06;4972567;28;20051;-47
2023/05/29 09:04:02;;;;;;;8.63;3.08;;;;;;;24.29;40.24;102355.19;4972779;28;20141;-46
2023/05/29 09:06:30;;;;;;;8.20;2.42;;;;;;;24.19;40.26;102356.78;4972639;28;20051;-45
2023/05/29 09:08:57;;;;;;;8.45;2.03;;;;;;;24.18;40.06;102353.16;4972376;28;20559;-46
2023/05/29 09:11:25;;;;;;;9.27;3.40;;;;;;;24.32;40.31;102352.38;4972933;28;20504;-46
2023/05/29 09:13:53;;;;;;;11.88;3.60;;;;;;;24.59;40.50;102364.97;4970375;28;20054;-49
2023/05/29 09:16:20;;;;;;;11.00;2.83;;;;;;;24.79;39.94;102369.06;4972902;28;20045;-47
2023/05/29 09:18:48;;;;;;;10.77;2.55;;;;;;;24.85;39.72;102371.50;4971848;28;20050;-46
2023/05/29 09:21:32;;;;;;;9.65;2.60;;;;;;;24.71;39.37;102360.94;4971769;28;20053;-45
2023/05/29 09:24:05;;;;;;;6.70;3.08;;;;;;;24.49;39.47;102371.41;4972628;28;20055;-48
2023/05/29 09:26:32;;;;;;;9.63;2.97;;;;;;;24.43;39.36;102361.72;4972536;28;20039;-47
2023/05/29 09:28:59;;;;;;;10.45;2.53;;;;;;;24.41;39.03;102377.47;4972489;28;20106;-46
2023/05/29 09:31:26;;;;;;;7.95;2.78;;;;;;;24.18;38.84;102372.16;4971541;28;20555;-49
2023/05/29 09:33:53;;;;;;;9.20;2.35;;;;;;;24.11;39.18;102366.47;4972719;28;20133;-46
2023/05/29 09:36:23;;;;;;;10.32;3.05;;;;;;;24.26;38.95;102368.13;4972083;28;20082;-46
2023/05/29 09:38:51;;;;;;;8.30;2.55;;;;;;;24.13;38.36;102362.03;4971726;28;20517;-46
2023/05/29 09:41:25;;;;;;;7.00;2.55;;;;;;;23.88;38.78;102363.91;4956123;28;20065;-47
2023/05/29 09:43:55;;;;;;;15.23;4.22;;;;;;;23.86;38.88;102371.97;4972115;28;20050;-45
2023/05/29 09:46:22;;;;;;;7.30;2.22;;;;;;;23.90;38.91;102377.66;4970883;28;20454;-48
2023/05/29 09:48:49;;;;;;;9.70;2.65;;;;;;;24.03;38.27;102370.44;4970829;28;20077;-47
2023/05/29 09:51:24;;;;;;;9.45;2.58;;;;;;;24.06;38.15;102367.66;4972089;28;20133;-48
2023/05/29 09:53:53;;;;;;;7.55;2.38;;;;;;;24.12;37.66;102368.88;4972102;28;20154;-52
2023/05/29 09:56:24;;;;;;;11.25;2.83;;;;;;;23.96;37.39;102376.09;4971920;28;20050;-45
2023/05/29 09:58:53;;;;;;;9.10;2.30;;;;;;;24.17;37.43;102371.31;4970802;28;20493;-46
2023/05/29 10:01:21;;;;;;;5.30;2.53;;;;;;;24.36;37.30;102373.00;4971578;28;20043;-45
2023/05/29 10:03:49;;;;;;;7.55;2.42;;;;;;;24.35;36.96;102379.91;4971355;28;20101;-46
2023/05/29 10:06:20;;;;;;;12.18;3.95;;;;;;;24.20;36.68;102366.88;4971579;28;20062;-47
2023/05/29 10:08:50;;;;;;;6.43;2.00;;;;;;;24.04;37.23;102369.25;4971776;28;20043;-46
2023/05/29 10:11:24;;;;;;;7.60;2.15;;;;;;;23.71;37.03;102364.66;4971870;28;20047;-45
2023/05/29 10:13:52;;;;;;;8.15;2.78;;;;;;;23.44;37.19;102372.56;4971325;28;20046;-45
2023/05/29 10:16:23;;;;;;;9.30;2.20;;;;;;;23.22;37.73;102358.66;4971853;28;20050;-45
2023/05/29 10:18:54;;;;;;;9.68;2.35;;;;;;;23.15;38.17;102353.75;4971874;28;20042;-45
2023/05/29 10:21:24;;;;;;;9.93;2.88;;;;;;;23.14;37.98;102365.47;4970340;28;20481;-45
2023/05/29 10:23:53;;;;;;;15.77;3.50;;;;;;;23.23;37.53;102365.91;4971162;28;20489;-45
2023/05/29 10:26:29;;;;;;;7.40;2.10;;;;;;;23.11;37.63;102361.41;4954472;28;20046;-46
2023/05/29 10:29:08;;;;;;;5.63;2.15;;;;;;;23.12;37.78;102365.03;4953473;28;20054;-45
2023/05/29 10:32:12;;;;;;;10.30;2.47;;;;;;;22.89;37.99;102356.78;4966314;28;20050;-46
2023/05/29 10:34:39;;;;;;;10.20;2.30;;;;;;;22.90;37.99;102364.06;4958684;28;20463;-46
2023/05/29 10:37:28;;;;;;;11.25;2.67;;;;;;;22.68;38.44;102367.88;4971013;28;20481;-49
2023/05/29 10:40:07;;;;;;;6.28;1.65;;;;;;;22.16;38.42;102358.44;4971046;28;20035;-46
2023/05/29 10:42:52;;;;;;;4.70;1.92;;;;;;;21.73;38.45;102359.09;4971122;28;20069;-48
2023/05/29 10:45:31;;;;;;;6.57;1.85;;;;;;;21.44;39.33;102360.69;4970831;28;20046;-45
2023/05/29 10:48:10;;;;;;;8.05;2.47;;;;;;;21.24;39.29;102357.16;4970843;28;20049;-45
2023/05/29 10:50:45;;;;;;;3.70;1.60;;;;;;;21.12;39.20;102360.22;4970246;28;20039;-45
2023/05/29 10:53:18;;;;;;;8.30;2.05;;;;;;;20.98;39.72;102371.19;4970408;28;20043;-45
2023/05/29 10:55:45;;;;;;;14.98;2.97;;;;;;;20.90;39.72;102369.47;4970119;28;20483;-45
2023/05/29 10:58:18;;;;;;;7.47;2.08;;;;;;;20.87;40.35;102375.84;4969770;28;20050;-45
2023/05/29 11:00:46;;;;;;;8.30;2.30;;;;;;;20.88;39.97;102371.84;4971049;28;20050;-45
2023/05/29 11:03:20;;;;;;;6.25;2.22;;;;;;;20.70;40.37;102367.91;4970712;28;20138;-45
2023/05/29 11:05:58;;;;;;;9.60;2.90;;;;;;;20.46;40.04;102374.72;4970565;28;20042;-45
2023/05/29 11:08:47;;;;;;;9.20;2.85;;;;;;;20.31;40.76;102366.34;4970452;28;20093;-45
2023/05/29 11:11:28;;;;;;;3.40;1.50;;;;;;;20.33;39.92;102366.81;4970487;28;20046;-45
2023/05/29 11:13:59;;;;;;;5.55;1.92;;;;;;;20.05;39.97;102370.66;4966711;28;20186;-45
2023/05/29 11:16:29;;;;;;;4.53;1.85;;;;;;;19.82;39.99;102360.50;4970524;28;20461;-48
2023/05/29 11:18:57;;;;;;;8.27;2.00;;;;;;;19.64;40.33;102359.31;4966809;28;20105;-44
2023/05/29 11:21:52;;;;;;;3.25;1.27;;;;;;;19.57;40.28;102361.94;4957811;28;20054;-45
2023/05/29 11:24:19;;;;;;;5.78;2.17;;;;;;;19.47;40.71;102357.72;4970335;28;20047;-46
2023/05/29 11:26:47;;;;;;;6.22;1.95;;;;;;;19.47;40.53;102368.97;4970309;28;20049;-45